sensor_id;sensor_type;location;lat;lon;timestamp;temperature;humidity
73572;DHT22;61854;48.510;-2.770;2022-12-18T00:01:36;0.00;85.60
73572;DHT22;61854;48.510;-2.770;2022-12-18T00:04:04;0.00;85.70
73572;DHT22;61854;48.510;-2.770;2022-12-18T00:06:31;0.00;85.90
73572;DHT22;61854;48.510;-2.770;2022-12-18T00:08:59;0.00;85.60
73572;DHT22;61854;48.510;-2.770;2022-12-18T00:11:29;0.00;85.60
73572;DHT22;61854;48.510;-2.770;2022-12-18T00:13:57;0.00;85.50
73572;DHT22;61854;48.510;-2.770;2022-12-18T00:16:24;0.10;85.40
73572;DHT22;61854;48.510;-2.770;2022-12-18T00:18:52;0.10;85.40
73572;DHT22;61854;48.510;-2.770;2022-12-18T00:21:19;0.00;85.30
73572;DHT22;61854;48.510;-2.770;2022-12-18T00:23:46;0.00;85.40
73572;DHT22;61854;48.510;-2.770;2022-12-18T00:26:14;0.00;85.60
73572;DHT22;61854;48.510;-2.770;2022-12-18T00:28:43;0.00;85.80
73572;DHT22;61854;48.510;-2.770;2022-12-18T00:31:12;0.00;85.90
73572;DHT22;61854;48.510;-2.770;2022-12-18T00:33:38;0.00;85.90
73572;DHT22;61854;48.510;-2.770;2022-12-18T00:36:13;0.00;85.90
73572;DHT22;61854;48.510;-2.770;2022-12-18T00:38:39;0.00;85.90
73572;DHT22;61854;48.510;-2.770;2022-12-18T00:41:06;0.00;86.10
73572;DHT22;61854;48.510;-2.770;2022-12-18T00:43:32;0.00;86.30
73572;DHT22;61854;48.510;-2.770;2022-12-18T00:46:01;0.00;86.30
73572;DHT22;61854;48.510;-2.770;2022-12-18T00:48:26;0.00;86.30
73572;DHT22;61854;48.510;-2.770;2022-12-18T00:50:52;0.10;86.40
73572;DHT22;61854;48.510;-2.770;2022-12-18T00:53:18;0.00;86.20
73572;DHT22;61854;48.510;-2.770;2022-12-18T00:55:44;0.10;86.30
73572;DHT22;61854;48.510;-2.770;2022-12-18T00:58:11;0.10;86.10
73572;DHT22;61854;48.510;-2.770;2022-12-18T01:00:37;0.10;86.20
73572;DHT22;61854;48.510;-2.770;2022-12-18T01:03:03;0.00;86.10
73572;DHT22;61854;48.510;-2.770;2022-12-18T01:05:29;0.10;86.30
73572;DHT22;61854;48.510;-2.770;2022-12-18T01:07:55;0.00;86.40
73572;DHT22;61854;48.510;-2.770;2022-12-18T01:10:21;0.10;86.40
73572;DHT22;61854;48.510;-2.770;2022-12-18T01:12:46;0.10;86.60
73572;DHT22;61854;48.510;-2.770;2022-12-18T01:15:13;0.10;86.30
73572;DHT22;61854;48.510;-2.770;2022-12-18T01:17:39;0.10;86.40
73572;DHT22;61854;48.510;-2.770;2022-12-18T01:20:05;0.20;86.20
73572;DHT22;61854;48.510;-2.770;2022-12-18T01:22:31;0.10;86.20
73572;DHT22;61854;48.510;-2.770;2022-12-18T01:25:00;0.20;86.30
73572;DHT22;61854;48.510;-2.770;2022-12-18T01:27:25;0.10;86.10
73572;DHT22;61854;48.510;-2.770;2022-12-18T01:29:51;0.10;86.40
73572;DHT22;61854;48.510;-2.770;2022-12-18T01:32:17;0.20;86.20
73572;DHT22;61854;48.510;-2.770;2022-12-18T01:34:42;0.20;86.40
73572;DHT22;61854;48.510;-2.770;2022-12-18T01:37:08;0.20;86.40
73572;DHT22;61854;48.510;-2.770;2022-12-18T01:39:34;0.20;86.40
73572;DHT22;61854;48.510;-2.770;2022-12-18T01:42:02;0.20;86.60
73572;DHT22;61854;48.510;-2.770;2022-12-18T01:47:43;0.30;86.40
73572;DHT22;61854;48.510;-2.770;2022-12-18T01:53:17;0.30;86.80
73572;DHT22;61854;48.510;-2.770;2022-12-18T01:55:50;0.30;86.80
73572;DHT22;61854;48.510;-2.770;2022-12-18T01:58:18;0.40;86.90
73572;DHT22;61854;48.510;-2.770;2022-12-18T02:00:44;0.40;87.10
73572;DHT22;61854;48.510;-2.770;2022-12-18T02:03:10;0.40;86.90
73572;DHT22;61854;48.510;-2.770;2022-12-18T02:11:15;0.40;87.50
73572;DHT22;61854;48.510;-2.770;2022-12-18T02:16:39;0.50;87.80
73572;DHT22;61854;48.510;-2.770;2022-12-18T02:22:51;0.50;88.10
73572;DHT22;61854;48.510;-2.770;2022-12-18T02:25:13;0.60;88.20
73572;DHT22;61854;48.510;-2.770;2022-12-18T02:27:44;0.60;88.50
73572;DHT22;61854;48.510;-2.770;2022-12-18T02:30:14;0.60;88.60
73572;DHT22;61854;48.510;-2.770;2022-12-18T02:32:45;0.60;88.70
73572;DHT22;61854;48.510;-2.770;2022-12-18T02:35:16;0.60;89.00
73572;DHT22;61854;48.510;-2.770;2022-12-18T02:37:43;0.70;89.20
73572;DHT22;61854;48.510;-2.770;2022-12-18T02:40:11;0.70;89.50
73572;DHT22;61854;48.510;-2.770;2022-12-18T02:42:38;0.70;89.60
73572;DHT22;61854;48.510;-2.770;2022-12-18T02:45:04;0.70;89.90
73572;DHT22;61854;48.510;-2.770;2022-12-18T02:47:32;0.80;90.00
73572;DHT22;61854;48.510;-2.770;2022-12-18T03:03:55;0.80;90.40
73572;DHT22;61854;48.510;-2.770;2022-12-18T03:06:39;0.90;90.40
73572;DHT22;61854;48.510;-2.770;2022-12-18T03:09:11;0.90;90.40
73572;DHT22;61854;48.510;-2.770;2022-12-18T03:11:41;0.90;90.50
73572;DHT22;61854;48.510;-2.770;2022-12-18T03:14:30;0.90;90.50
73572;DHT22;61854;48.510;-2.770;2022-12-18T03:17:00;0.90;90.60
73572;DHT22;61854;48.510;-2.770;2022-12-18T03:19:28;0.90;90.70
73572;DHT22;61854;48.510;-2.770;2022-12-18T03:21:56;0.90;90.70
73572;DHT22;61854;48.510;-2.770;2022-12-18T03:24:23;0.90;90.80
73572;DHT22;61854;48.510;-2.770;2022-12-18T03:26:53;1.00;90.80
73572;DHT22;61854;48.510;-2.770;2022-12-18T03:29:25;1.00;91.00
73572;DHT22;61854;48.510;-2.770;2022-12-18T03:32:00;1.00;91.20
73572;DHT22;61854;48.510;-2.770;2022-12-18T03:34:31;1.00;91.40
73572;DHT22;61854;48.510;-2.770;2022-12-18T03:36:59;1.10;91.40
73572;DHT22;61854;48.510;-2.770;2022-12-18T03:39:27;1.10;91.50
73572;DHT22;61854;48.510;-2.770;2022-12-18T03:42:09;1.10;91.50
73572;DHT22;61854;48.510;-2.770;2022-12-18T03:44:44;1.20;91.60
73572;DHT22;61854;48.510;-2.770;2022-12-18T03:52:50;1.20;91.90
73572;DHT22;61854;48.510;-2.770;2022-12-18T03:55:19;1.30;91.90
73572;DHT22;61854;48.510;-2.770;2022-12-18T03:57:46;1.40;91.90
73572;DHT22;61854;48.510;-2.770;2022-12-18T04:00:15;1.30;92.00
73572;DHT22;61854;48.510;-2.770;2022-12-18T04:02:50;1.40;92.10
73572;DHT22;61854;48.510;-2.770;2022-12-18T04:05:17;1.40;92.20
73572;DHT22;61854;48.510;-2.770;2022-12-18T04:07:45;1.40;92.20
73572;DHT22;61854;48.510;-2.770;2022-12-18T04:10:12;1.40;92.30
73572;DHT22;61854;48.510;-2.770;2022-12-18T04:12:39;1.50;92.30
73572;DHT22;61854;48.510;-2.770;2022-12-18T04:15:06;1.50;92.50
73572;DHT22;61854;48.510;-2.770;2022-12-18T04:17:32;1.50;92.70
73572;DHT22;61854;48.510;-2.770;2022-12-18T04:19:57;1.50;92.80
73572;DHT22;61854;48.510;-2.770;2022-12-18T04:22:23;1.50;92.90
73572;DHT22;61854;48.510;-2.770;2022-12-18T04:24:49;1.60;93.10
73572;DHT22;61854;48.510;-2.770;2022-12-18T04:27:14;1.60;93.30
73572;DHT22;61854;48.510;-2.770;2022-12-18T04:29:40;1.60;93.40
73572;DHT22;61854;48.510;-2.770;2022-12-18T04:32:06;1.60;93.50
73572;DHT22;61854;48.510;-2.770;2022-12-18T04:34:32;1.60;93.60
73572;DHT22;61854;48.510;-2.770;2022-12-18T04:36:57;1.60;93.70
73572;DHT22;61854;48.510;-2.770;2022-12-18T04:39:24;1.60;93.80
73572;DHT22;61854;48.510;-2.770;2022-12-18T04:41:49;1.60;93.80
73572;DHT22;61854;48.510;-2.770;2022-12-18T04:44:15;1.60;93.90
73572;DHT22;61854;48.510;-2.770;2022-12-18T04:46:41;1.70;94.00
73572;DHT22;61854;48.510;-2.770;2022-12-18T04:49:06;1.70;94.20
73572;DHT22;61854;48.510;-2.770;2022-12-18T04:51:32;1.70;94.40
73572;DHT22;61854;48.510;-2.770;2022-12-18T04:53:58;1.70;94.50
73572;DHT22;61854;48.510;-2.770;2022-12-18T04:56:23;1.70;95.20
73572;DHT22;61854;48.510;-2.770;2022-12-18T04:58:49;1.70;94.80
73572;DHT22;61854;48.510;-2.770;2022-12-18T05:01:16;1.70;95.00
73572;DHT22;61854;48.510;-2.770;2022-12-18T05:03:42;1.70;95.00
73572;DHT22;61854;48.510;-2.770;2022-12-18T05:06:09;1.80;95.10
73572;DHT22;61854;48.510;-2.770;2022-12-18T05:08:34;1.80;95.00
73572;DHT22;61854;48.510;-2.770;2022-12-18T05:11:10;1.80;95.00
73572;DHT22;61854;48.510;-2.770;2022-12-18T05:13:37;1.70;95.10
73572;DHT22;61854;48.510;-2.770;2022-12-18T05:16:06;1.80;95.20
73572;DHT22;61854;48.510;-2.770;2022-12-18T05:18:31;1.70;95.20
73572;DHT22;61854;48.510;-2.770;2022-12-18T05:20:57;1.70;95.30
73572;DHT22;61854;48.510;-2.770;2022-12-18T05:23:24;1.70;95.50
73572;DHT22;61854;48.510;-2.770;2022-12-18T05:25:58;1.70;95.70
73572;DHT22;61854;48.510;-2.770;2022-12-18T05:28:26;1.70;95.90
73572;DHT22;61854;48.510;-2.770;2022-12-18T05:30:57;1.80;96.10
73572;DHT22;61854;48.510;-2.770;2022-12-18T05:33:24;1.80;96.30
73572;DHT22;61854;48.510;-2.770;2022-12-18T05:35:54;1.80;96.50
73572;DHT22;61854;48.510;-2.770;2022-12-18T05:38:22;1.80;96.70
73572;DHT22;61854;48.510;-2.770;2022-12-18T05:40:48;1.90;96.90
73572;DHT22;61854;48.510;-2.770;2022-12-18T05:43:15;1.90;97.00
73572;DHT22;61854;48.510;-2.770;2022-12-18T05:45:41;1.90;97.10
73572;DHT22;61854;48.510;-2.770;2022-12-18T05:48:07;2.00;97.30
73572;DHT22;61854;48.510;-2.770;2022-12-18T05:50:40;2.10;97.30
73572;DHT22;61854;48.510;-2.770;2022-12-18T05:53:07;2.10;97.40
73572;DHT22;61854;48.510;-2.770;2022-12-18T05:55:34;2.20;97.50
73572;DHT22;61854;48.510;-2.770;2022-12-18T05:58:00;2.20;97.50
73572;DHT22;61854;48.510;-2.770;2022-12-18T06:00:26;2.30;97.70
73572;DHT22;61854;48.510;-2.770;2022-12-18T06:02:52;2.30;97.70
73572;DHT22;61854;48.510;-2.770;2022-12-18T06:05:17;2.40;97.90
73572;DHT22;61854;48.510;-2.770;2022-12-18T06:07:43;2.40;97.80
73572;DHT22;61854;48.510;-2.770;2022-12-18T06:10:09;2.50;97.90
73572;DHT22;61854;48.510;-2.770;2022-12-18T06:12:34;2.50;98.00
73572;DHT22;61854;48.510;-2.770;2022-12-18T06:15:00;2.50;98.10
73572;DHT22;61854;48.510;-2.770;2022-12-18T06:17:30;2.50;98.10
73572;DHT22;61854;48.510;-2.770;2022-12-18T06:19:56;2.60;98.20
73572;DHT22;61854;48.510;-2.770;2022-12-18T06:22:21;2.50;98.20
73572;DHT22;61854;48.510;-2.770;2022-12-18T06:24:47;2.50;98.30
73572;DHT22;61854;48.510;-2.770;2022-12-18T06:27:13;2.50;98.30
73572;DHT22;61854;48.510;-2.770;2022-12-18T06:29:38;2.50;98.30
73572;DHT22;61854;48.510;-2.770;2022-12-18T06:32:04;2.50;98.30
73572;DHT22;61854;48.510;-2.770;2022-12-18T06:34:30;2.50;98.40
73572;DHT22;61854;48.510;-2.770;2022-12-18T06:36:55;2.50;98.50
73572;DHT22;61854;48.510;-2.770;2022-12-18T06:39:21;2.50;98.70
73572;DHT22;61854;48.510;-2.770;2022-12-18T06:41:47;2.50;98.70
73572;DHT22;61854;48.510;-2.770;2022-12-18T06:44:12;2.50;98.80
73572;DHT22;61854;48.510;-2.770;2022-12-18T06:46:38;2.50;99.00
73572;DHT22;61854;48.510;-2.770;2022-12-18T06:49:04;2.50;99.20
73572;DHT22;61854;48.510;-2.770;2022-12-18T06:51:29;2.60;99.30
73572;DHT22;61854;48.510;-2.770;2022-12-18T06:53:55;2.60;99.30
73572;DHT22;61854;48.510;-2.770;2022-12-18T06:56:21;2.70;99.40
73572;DHT22;61854;48.510;-2.770;2022-12-18T06:58:46;2.70;99.30
73572;DHT22;61854;48.510;-2.770;2022-12-18T07:01:15;2.70;99.30
73572;DHT22;61854;48.510;-2.770;2022-12-18T07:03:41;2.70;99.40
73572;DHT22;61854;48.510;-2.770;2022-12-18T07:06:13;2.70;99.40
73572;DHT22;61854;48.510;-2.770;2022-12-18T07:08:39;2.70;99.40
73572;DHT22;61854;48.510;-2.770;2022-12-18T07:11:05;2.70;99.50
73572;DHT22;61854;48.510;-2.770;2022-12-18T07:13:31;2.70;99.90
73572;DHT22;61854;48.510;-2.770;2022-12-18T07:16:04;2.70;99.60
73572;DHT22;61854;48.510;-2.770;2022-12-18T07:18:30;2.70;99.60
73572;DHT22;61854;48.510;-2.770;2022-12-18T07:20:55;2.70;99.70
73572;DHT22;61854;48.510;-2.770;2022-12-18T07:23:21;2.70;99.80
73572;DHT22;61854;48.510;-2.770;2022-12-18T07:25:46;2.70;99.90
73572;DHT22;61854;48.510;-2.770;2022-12-18T07:28:12;2.70;99.90
73572;DHT22;61854;48.510;-2.770;2022-12-18T07:30:38;2.70;99.90
73572;DHT22;61854;48.510;-2.770;2022-12-18T07:33:03;2.70;99.90
73572;DHT22;61854;48.510;-2.770;2022-12-18T07:35:29;2.70;99.90
73572;DHT22;61854;48.510;-2.770;2022-12-18T07:37:55;2.70;99.90
73572;DHT22;61854;48.510;-2.770;2022-12-18T07:40:20;2.70;99.90
73572;DHT22;61854;48.510;-2.770;2022-12-18T07:42:46;2.80;99.90
73572;DHT22;61854;48.510;-2.770;2022-12-18T07:45:12;2.80;99.90
73572;DHT22;61854;48.510;-2.770;2022-12-18T07:47:37;2.80;99.90
73572;DHT22;61854;48.510;-2.770;2022-12-18T07:50:04;2.80;99.90
73572;DHT22;61854;48.510;-2.770;2022-12-18T07:52:30;2.80;99.90
73572;DHT22;61854;48.510;-2.770;2022-12-18T07:54:56;2.80;99.90
73572;DHT22;61854;48.510;-2.770;2022-12-18T07:57:21;2.90;99.90
73572;DHT22;61854;48.510;-2.770;2022-12-18T07:59:47;2.90;99.90
73572;DHT22;61854;48.510;-2.770;2022-12-18T08:02:13;2.90;99.90
73572;DHT22;61854;48.510;-2.770;2022-12-18T08:07:04;3.00;99.90
73572;DHT22;61854;48.510;-2.770;2022-12-18T08:09:30;3.00;99.90
73572;DHT22;61854;48.510;-2.770;2022-12-18T08:11:56;3.00;99.90
73572;DHT22;61854;48.510;-2.770;2022-12-18T08:14:21;3.10;99.90
73572;DHT22;61854;48.510;-2.770;2022-12-18T08:16:47;3.20;99.90
73572;DHT22;61854;48.510;-2.770;2022-12-18T08:19:12;3.20;99.90
73572;DHT22;61854;48.510;-2.770;2022-12-18T08:21:38;3.30;99.90
73572;DHT22;61854;48.510;-2.770;2022-12-18T08:24:08;3.20;99.90
73572;DHT22;61854;48.510;-2.770;2022-12-18T08:26:34;3.30;99.90
73572;DHT22;61854;48.510;-2.770;2022-12-18T08:29:00;3.30;99.90
73572;DHT22;61854;48.510;-2.770;2022-12-18T08:31:28;3.30;99.90
73572;DHT22;61854;48.510;-2.770;2022-12-18T08:33:55;3.40;99.90
73572;DHT22;61854;48.510;-2.770;2022-12-18T08:36:20;3.40;99.90
73572;DHT22;61854;48.510;-2.770;2022-12-18T08:38:46;3.40;99.90
73572;DHT22;61854;48.510;-2.770;2022-12-18T08:41:14;3.50;99.90
73572;DHT22;61854;48.510;-2.770;2022-12-18T08:43:40;3.50;99.90
73572;DHT22;61854;48.510;-2.770;2022-12-18T08:46:26;3.60;99.90
73572;DHT22;61854;48.510;-2.770;2022-12-18T08:48:53;3.70;99.90
73572;DHT22;61854;48.510;-2.770;2022-12-18T08:51:19;3.70;99.90
73572;DHT22;61854;48.510;-2.770;2022-12-18T08:53:46;3.80;99.90
73572;DHT22;61854;48.510;-2.770;2022-12-18T08:56:12;3.80;99.90
73572;DHT22;61854;48.510;-2.770;2022-12-18T08:58:39;3.90;99.90
73572;DHT22;61854;48.510;-2.770;2022-12-18T09:01:06;3.90;99.90
73572;DHT22;61854;48.510;-2.770;2022-12-18T09:03:32;4.00;99.90
73572;DHT22;61854;48.510;-2.770;2022-12-18T09:05:58;4.00;99.90
73572;DHT22;61854;48.510;-2.770;2022-12-18T09:08:25;4.10;99.90
73572;DHT22;61854;48.510;-2.770;2022-12-18T09:10:51;4.10;99.90
73572;DHT22;61854;48.510;-2.770;2022-12-18T09:13:17;4.10;99.90
73572;DHT22;61854;48.510;-2.770;2022-12-18T09:15:51;4.20;99.90
73572;DHT22;61854;48.510;-2.770;2022-12-18T09:18:19;4.20;99.90
73572;DHT22;61854;48.510;-2.770;2022-12-18T09:20:48;4.30;99.90
73572;DHT22;61854;48.510;-2.770;2022-12-18T09:23:15;4.30;99.90
73572;DHT22;61854;48.510;-2.770;2022-12-18T09:25:41;4.40;99.90
73572;DHT22;61854;48.510;-2.770;2022-12-18T09:28:14;4.50;99.90
73572;DHT22;61854;48.510;-2.770;2022-12-18T09:30:45;4.50;99.90
73572;DHT22;61854;48.510;-2.770;2022-12-18T09:33:11;4.60;99.90
73572;DHT22;61854;48.510;-2.770;2022-12-18T09:35:41;4.70;99.90
73572;DHT22;61854;48.510;-2.770;2022-12-18T09:38:08;4.70;99.90
73572;DHT22;61854;48.510;-2.770;2022-12-18T09:40:41;4.80;99.90
73572;DHT22;61854;48.510;-2.770;2022-12-18T09:43:17;4.80;99.90
73572;DHT22;61854;48.510;-2.770;2022-12-18T09:45:58;4.90;99.90
73572;DHT22;61854;48.510;-2.770;2022-12-18T09:48:34;4.90;99.90
73572;DHT22;61854;48.510;-2.770;2022-12-18T09:51:05;5.00;99.90
73572;DHT22;61854;48.510;-2.770;2022-12-18T09:53:37;5.00;99.90
73572;DHT22;61854;48.510;-2.770;2022-12-18T09:56:06;5.10;99.90
73572;DHT22;61854;48.510;-2.770;2022-12-18T09:58:39;5.10;99.90
73572;DHT22;61854;48.510;-2.770;2022-12-18T10:01:14;5.20;99.90
73572;DHT22;61854;48.510;-2.770;2022-12-18T10:03:41;5.20;99.90
73572;DHT22;61854;48.510;-2.770;2022-12-18T10:08:55;5.40;99.90
73572;DHT22;61854;48.510;-2.770;2022-12-18T10:16:35;5.50;99.90
73572;DHT22;61854;48.510;-2.770;2022-12-18T10:21:35;5.60;99.90
73572;DHT22;61854;48.510;-2.770;2022-12-18T10:24:29;5.70;99.90
73572;DHT22;61854;48.510;-2.770;2022-12-18T10:27:08;5.70;99.90
73572;DHT22;61854;48.510;-2.770;2022-12-18T10:29:36;5.80;99.90
73572;DHT22;61854;48.510;-2.770;2022-12-18T10:32:01;5.80;99.90
73572;DHT22;61854;48.510;-2.770;2022-12-18T10:34:27;5.80;99.90
73572;DHT22;61854;48.510;-2.770;2022-12-18T10:36:52;5.90;99.90
73572;DHT22;61854;48.510;-2.770;2022-12-18T10:39:22;5.90;99.90
73572;DHT22;61854;48.510;-2.770;2022-12-18T10:41:48;5.90;99.90
73572;DHT22;61854;48.510;-2.770;2022-12-18T10:44:19;6.00;99.90
73572;DHT22;61854;48.510;-2.770;2022-12-18T10:46:47;6.00;99.90
73572;DHT22;61854;48.510;-2.770;2022-12-18T10:49:33;6.00;99.90
73572;DHT22;61854;48.510;-2.770;2022-12-18T10:52:13;6.00;99.90
73572;DHT22;61854;48.510;-2.770;2022-12-18T10:54:45;6.10;99.90
73572;DHT22;61854;48.510;-2.770;2022-12-18T10:57:37;6.10;99.90
73572;DHT22;61854;48.510;-2.770;2022-12-18T11:00:25;6.20;99.90
73572;DHT22;61854;48.510;-2.770;2022-12-18T11:02:53;6.20;99.90
73572;DHT22;61854;48.510;-2.770;2022-12-18T11:07:55;6.20;99.90
73572;DHT22;61854;48.510;-2.770;2022-12-18T11:10:36;6.30;99.90
73572;DHT22;61854;48.510;-2.770;2022-12-18T11:13:23;6.30;99.90
73572;DHT22;61854;48.510;-2.770;2022-12-18T11:15:50;6.40;99.90
73572;DHT22;61854;48.510;-2.770;2022-12-18T11:20:51;6.50;99.90
73572;DHT22;61854;48.510;-2.770;2022-12-18T11:23:19;6.50;99.90
73572;DHT22;61854;48.510;-2.770;2022-12-18T11:25:56;6.60;99.90
73572;DHT22;61854;48.510;-2.770;2022-12-18T11:31:19;6.70;99.90
73572;DHT22;61854;48.510;-2.770;2022-12-18T11:34:09;6.80;99.90
73572;DHT22;61854;48.510;-2.770;2022-12-18T11:36:41;6.80;99.90
73572;DHT22;61854;48.510;-2.770;2022-12-18T11:39:35;7.00;99.90
73572;DHT22;61854;48.510;-2.770;2022-12-18T11:42:08;7.00;99.90
73572;DHT22;61854;48.510;-2.770;2022-12-18T11:50:03;7.30;99.90
73572;DHT22;61854;48.510;-2.770;2022-12-18T11:52:36;7.40;99.90
73572;DHT22;61854;48.510;-2.770;2022-12-18T11:55:28;7.50;99.90
73572;DHT22;61854;48.510;-2.770;2022-12-18T12:00:56;7.50;99.90
73572;DHT22;61854;48.510;-2.770;2022-12-18T12:16:41;7.80;99.90
73572;DHT22;61854;48.510;-2.770;2022-12-18T12:25:02;8.00;99.90
73572;DHT22;61854;48.510;-2.770;2022-12-18T12:37:58;8.20;99.90
73572;DHT22;61854;48.510;-2.770;2022-12-18T12:40:31;8.20;99.90
73572;DHT22;61854;48.510;-2.770;2022-12-18T12:43:23;8.30;99.90
73572;DHT22;61854;48.510;-2.770;2022-12-18T12:46:00;8.30;99.90
73572;DHT22;61854;48.510;-2.770;2022-12-18T12:51:26;8.40;99.90
73572;DHT22;61854;48.510;-2.770;2022-12-18T12:53:54;8.40;99.90
73572;DHT22;61854;48.510;-2.770;2022-12-18T12:56:22;8.50;99.90
73572;DHT22;61854;48.510;-2.770;2022-12-18T12:58:58;8.50;99.90
73572;DHT22;61854;48.510;-2.770;2022-12-18T13:09:11;8.70;99.90
73572;DHT22;61854;48.510;-2.770;2022-12-18T13:11:40;8.80;99.90
73572;DHT22;61854;48.510;-2.770;2022-12-18T13:14:31;8.90;99.90
73572;DHT22;61854;48.510;-2.770;2022-12-18T13:20:02;9.00;99.90
73572;DHT22;61854;48.510;-2.770;2022-12-18T13:22:35;9.10;99.90
73572;DHT22;61854;48.510;-2.770;2022-12-18T13:25:03;9.10;99.90
73572;DHT22;61854;48.510;-2.770;2022-12-18T13:48:32;9.10;99.30
73572;DHT22;61854;48.510;-2.770;2022-12-18T13:51:10;9.10;99.40
73572;DHT22;61854;48.510;-2.770;2022-12-18T13:53:58;9.10;99.30
73572;DHT22;61854;48.510;-2.770;2022-12-18T13:56:26;9.20;99.30
73572;DHT22;61854;48.510;-2.770;2022-12-18T13:59:15;9.20;99.10
73572;DHT22;61854;48.510;-2.770;2022-12-18T14:06:50;9.10;99.60
73572;DHT22;61854;48.510;-2.770;2022-12-18T14:09:27;9.20;99.60
73572;DHT22;61854;48.510;-2.770;2022-12-18T14:11:54;9.20;99.70
73572;DHT22;61854;48.510;-2.770;2022-12-18T14:14:46;9.20;99.90
73572;DHT22;61854;48.510;-2.770;2022-12-18T14:17:13;9.30;99.90
73572;DHT22;61854;48.510;-2.770;2022-12-18T14:19:47;9.40;99.90
73572;DHT22;61854;48.510;-2.770;2022-12-18T14:22:19;9.40;99.90
73572;DHT22;61854;48.510;-2.770;2022-12-18T14:24:46;9.40;99.90
73572;DHT22;61854;48.510;-2.770;2022-12-18T14:27:24;9.40;99.70
73572;DHT22;61854;48.510;-2.770;2022-12-18T14:29:50;9.40;99.80
73572;DHT22;61854;48.510;-2.770;2022-12-18T14:32:20;9.40;99.80
73572;DHT22;61854;48.510;-2.770;2022-12-18T14:34:51;9.30;99.90
73572;DHT22;61854;48.510;-2.770;2022-12-18T14:37:21;9.30;99.90
73572;DHT22;61854;48.510;-2.770;2022-12-18T14:39:58;9.40;99.90
73572;DHT22;61854;48.510;-2.770;2022-12-18T14:42:26;9.40;99.90
73572;DHT22;61854;48.510;-2.770;2022-12-18T14:47:58;9.40;99.90
73572;DHT22;61854;48.510;-2.770;2022-12-18T14:50:24;9.40;99.90
73572;DHT22;61854;48.510;-2.770;2022-12-18T14:52:50;9.30;99.90
73572;DHT22;61854;48.510;-2.770;2022-12-18T14:55:18;9.40;99.90
73572;DHT22;61854;48.510;-2.770;2022-12-18T14:57:44;9.40;99.90
73572;DHT22;61854;48.510;-2.770;2022-12-18T15:00:22;9.40;99.90
73572;DHT22;61854;48.510;-2.770;2022-12-18T15:02:54;9.50;99.90
73572;DHT22;61854;48.510;-2.770;2022-12-18T15:05:28;9.50;99.90
73572;DHT22;61854;48.510;-2.770;2022-12-18T15:07:56;9.60;99.90
73572;DHT22;61854;48.510;-2.770;2022-12-18T15:10:27;9.50;99.90
73572;DHT22;61854;48.510;-2.770;2022-12-18T15:18:04;9.50;99.90
73572;DHT22;61854;48.510;-2.770;2022-12-18T15:23:23;9.50;99.90
73572;DHT22;61854;48.510;-2.770;2022-12-18T15:26:06;9.50;99.90
73572;DHT22;61854;48.510;-2.770;2022-12-18T15:28:48;9.50;99.90
73572;DHT22;61854;48.510;-2.770;2022-12-18T15:36:17;9.40;99.90
73572;DHT22;61854;48.510;-2.770;2022-12-18T15:38:47;9.40;99.90
73572;DHT22;61854;48.510;-2.770;2022-12-18T15:41:14;9.40;99.90
73572;DHT22;61854;48.510;-2.770;2022-12-18T15:43:40;9.40;99.90
73572;DHT22;61854;48.510;-2.770;2022-12-18T15:48:43;9.30;99.90
73572;DHT22;61854;48.510;-2.770;2022-12-18T15:51:21;9.30;99.90
73572;DHT22;61854;48.510;-2.770;2022-12-18T15:53:50;9.30;99.90
73572;DHT22;61854;48.510;-2.770;2022-12-18T15:56:16;9.30;99.90
73572;DHT22;61854;48.510;-2.770;2022-12-18T15:59:01;9.30;99.90
73572;DHT22;61854;48.510;-2.770;2022-12-18T16:01:29;9.20;99.90
73572;DHT22;61854;48.510;-2.770;2022-12-18T16:03:54;9.20;99.90
73572;DHT22;61854;48.510;-2.770;2022-12-18T16:06:21;9.20;99.90
73572;DHT22;61854;48.510;-2.770;2022-12-18T16:08:47;9.20;99.90
73572;DHT22;61854;48.510;-2.770;2022-12-18T16:11:28;9.20;99.90
73572;DHT22;61854;48.510;-2.770;2022-12-18T16:16:46;9.10;99.90
73572;DHT22;61854;48.510;-2.770;2022-12-18T16:19:12;9.10;99.90
73572;DHT22;61854;48.510;-2.770;2022-12-18T16:21:37;9.00;99.90
73572;DHT22;61854;48.510;-2.770;2022-12-18T16:24:03;9.00;99.90
73572;DHT22;61854;48.510;-2.770;2022-12-18T16:26:32;9.00;99.90
73572;DHT22;61854;48.510;-2.770;2022-12-18T16:28:57;9.00;99.90
73572;DHT22;61854;48.510;-2.770;2022-12-18T16:31:23;9.00;99.90
73572;DHT22;61854;48.510;-2.770;2022-12-18T16:33:49;9.10;99.90
73572;DHT22;61854;48.510;-2.770;2022-12-18T16:36:14;9.10;99.90
73572;DHT22;61854;48.510;-2.770;2022-12-18T16:38:40;9.20;99.90
73572;DHT22;61854;48.510;-2.770;2022-12-18T16:41:18;9.20;99.90
73572;DHT22;61854;48.510;-2.770;2022-12-18T16:43:56;9.30;99.90
73572;DHT22;61854;48.510;-2.770;2022-12-18T16:46:22;9.40;99.90
73572;DHT22;61854;48.510;-2.770;2022-12-18T16:48:47;9.50;99.90
73572;DHT22;61854;48.510;-2.770;2022-12-18T16:51:16;9.60;99.90
73572;DHT22;61854;48.510;-2.770;2022-12-18T16:53:42;9.60;99.90
73572;DHT22;61854;48.510;-2.770;2022-12-18T16:56:07;9.60;99.90
73572;DHT22;61854;48.510;-2.770;2022-12-18T16:58:33;9.60;99.90
73572;DHT22;61854;48.510;-2.770;2022-12-18T17:00:59;9.70;99.90
73572;DHT22;61854;48.510;-2.770;2022-12-18T17:03:25;9.60;99.90
73572;DHT22;61854;48.510;-2.770;2022-12-18T17:05:50;9.60;99.90
73572;DHT22;61854;48.510;-2.770;2022-12-18T17:08:16;9.70;99.90
73572;DHT22;61854;48.510;-2.770;2022-12-18T17:10:41;9.70;99.90
73572;DHT22;61854;48.510;-2.770;2022-12-18T17:13:07;9.70;99.90
73572;DHT22;61854;48.510;-2.770;2022-12-18T17:15:36;9.70;99.90
73572;DHT22;61854;48.510;-2.770;2022-12-18T17:18:02;9.70;99.90
73572;DHT22;61854;48.510;-2.770;2022-12-18T17:20:29;9.60;99.90
73572;DHT22;61854;48.510;-2.770;2022-12-18T17:22:58;9.60;99.90
73572;DHT22;61854;48.510;-2.770;2022-12-18T17:25:23;9.60;99.90
73572;DHT22;61854;48.510;-2.770;2022-12-18T17:27:50;9.70;99.90
73572;DHT22;61854;48.510;-2.770;2022-12-18T17:30:16;9.70;99.90
73572;DHT22;61854;48.510;-2.770;2022-12-18T17:32:41;9.70;99.90
73572;DHT22;61854;48.510;-2.770;2022-12-18T17:35:07;9.70;99.90
73572;DHT22;61854;48.510;-2.770;2022-12-18T17:37:33;9.70;99.90
73572;DHT22;61854;48.510;-2.770;2022-12-18T17:39:58;9.70;99.90
73572;DHT22;61854;48.510;-2.770;2022-12-18T17:42:24;9.70;99.90
73572;DHT22;61854;48.510;-2.770;2022-12-18T17:44:50;9.70;99.90
73572;DHT22;61854;48.510;-2.770;2022-12-18T17:47:17;9.70;99.90
73572;DHT22;61854;48.510;-2.770;2022-12-18T17:49:43;9.70;99.90
73572;DHT22;61854;48.510;-2.770;2022-12-18T17:52:09;9.70;99.90
73572;DHT22;61854;48.510;-2.770;2022-12-18T17:54:34;9.80;99.90
73572;DHT22;61854;48.510;-2.770;2022-12-18T17:57:04;9.80;99.90
73572;DHT22;61854;48.510;-2.770;2022-12-18T17:59:30;9.80;99.90
73572;DHT22;61854;48.510;-2.770;2022-12-18T18:01:55;9.80;99.90
73572;DHT22;61854;48.510;-2.770;2022-12-18T18:04:21;9.80;99.90
73572;DHT22;61854;48.510;-2.770;2022-12-18T18:06:47;9.80;99.90
73572;DHT22;61854;48.510;-2.770;2022-12-18T18:09:12;9.80;99.90
73572;DHT22;61854;48.510;-2.770;2022-12-18T18:11:38;9.80;99.90
73572;DHT22;61854;48.510;-2.770;2022-12-18T18:14:22;9.80;99.90
73572;DHT22;61854;48.510;-2.770;2022-12-18T18:16:49;9.90;99.90
73572;DHT22;61854;48.510;-2.770;2022-12-18T18:19:21;9.90;99.90